Time;durP1;ratioP1;P1;durP2;ratioP2;P2;SDS_P1;SDS_P2;PMS_P1;PMS_P2;Temp;Humidity;BMP_temperature;BMP_pressure;BME280_temperature;BME280_humidity;BME280_pressure;Samples;Min_cycle;Max_cycle;Signal;HPM_P1;HPM_P2
2024/01/08 00:01:50;;;;;;;25.10;22.70;;;;;;;-7.89;96.47;98109.61;106378;1282;25239;-74
2024/01/08 00:04:18;;;;;;;28.00;25.30;;;;;;;-7.95;96.44;98110.72;106331;1278;25319;-75
2024/01/08 00:06:46;;;;;;;26.00;23.40;;;;;;;-7.97;96.59;98116.75;106371;1282;22573;-75
2024/01/08 00:09:14;;;;;;;26.30;23.80;;;;;;;-7.95;96.72;98113.46;106319;1276;22539;-75
2024/01/08 00:11:42;;;;;;;26.20;23.70;;;;;;;-7.95;96.37;98117.53;106298;1268;23969;-75
2024/01/08 00:14:10;;;;;;;27.10;24.40;;;;;;;-7.94;96.76;98114.39;106315;1280;22561;-76
2024/01/08 00:16:38;;;;;;;25.70;23.10;;;;;;;-7.95;96.53;98116.56;106263;1279;25384;-74
2024/01/08 00:19:06;;;;;;;37.30;34.00;;;;;;;-7.94;96.54;98119.11;106177;1274;22595;-76
2024/01/08 00:21:34;;;;;;;30.30;27.50;;;;;;;-7.92;96.70;98123.56;106293;1268;22550;-73
2024/01/08 00:24:02;;;;;;;28.00;25.30;;;;;;;-7.89;96.71;98128.09;106287;1277;22537;-77
2024/01/08 00:26:31;;;;;;;25.90;23.30;;;;;;;-7.86;96.91;98131.90;106294;1268;22565;-75
2024/01/08 00:28:59;;;;;;;25.90;23.50;;;;;;;-7.78;97.07;98130.84;106234;1280;22557;-75
2024/01/08 00:31:27;;;;;;;26.00;23.20;;;;;;;-7.78;96.76;98131.13;106275;1280;25434;-77
2024/01/08 00:33:55;;;;;;;25.10;22.60;;;;;;;-7.76;96.55;98135.35;106276;1283;26220;-76
2024/01/08 00:36:24;;;;;;;27.20;24.40;;;;;;;-7.76;96.68;98137.77;106261;1270;22564;-74
2024/01/08 00:38:53;;;;;;;29.20;26.20;;;;;;;-7.77;96.66;98135.54;106258;1273;25257;-76
2024/01/08 00:41:21;;;;;;;23.80;21.40;;;;;;;-7.74;96.75;98135.64;106302;1270;24155;-76
2024/01/08 00:43:51;;;;;;;25.90;23.10;;;;;;;-7.75;96.74;98138.05;106392;1273;22787;-75
2024/01/08 00:46:19;;;;;;;25.20;22.70;;;;;;;-7.76;96.72;98141.79;106303;1273;24383;-76
2024/01/08 00:48:47;;;;;;;24.20;21.80;;;;;;;-7.79;96.39;98143.91;106251;1283;22571;-76
2024/01/08 00:51:16;;;;;;;24.00;21.60;;;;;;;-7.85;96.34;98145.46;106443;1269;22536;-76
2024/01/08 00:53:44;;;;;;;24.00;21.60;;;;;;;-7.94;96.08;98149.57;106190;1273;22544;-77
2024/01/08 00:56:14;;;;;;;24.00;21.60;;;;;;;-7.94;96.30;98149.65;106306;1275;25586;-76
2024/01/08 00:58:43;;;;;;;25.20;22.70;;;;;;;-7.98;96.22;98153.08;106322;1273;22550;-74
2024/01/08 01:01:12;;;;;;;24.50;22.00;;;;;;;-8.06;95.90;98154.30;106310;1283;24231;-74
2024/01/08 01:03:40;;;;;;;25.20;22.80;;;;;;;-8.15;95.78;98158.67;106301;1277;24365;-75
2024/01/08 01:06:08;;;;;;;24.70;22.30;;;;;;;-8.18;95.82;98164.09;106298;1273;22554;-75
2024/01/08 01:08:36;;;;;;;22.30;20.10;;;;;;;-8.18;95.67;98167.91;106279;1282;22546;-76
2024/01/08 01:11:06;;;;;;;24.70;22.30;;;;;;;-8.26;95.27;98166.84;106346;1273;22539;-75
2024/01/08 01:13:34;;;;;;;21.50;19.40;;;;;;;-8.36;94.99;98173.89;106267;1268;22545;-75
2024/01/08 01:16:02;;;;;;;24.50;22.00;;;;;;;-8.45;95.09;98175.11;106260;1270;22540;-75
2024/01/08 01:18:30;;;;;;;24.10;21.60;;;;;;;-8.45;95.34;98174.42;106257;1272;24363;-75
2024/01/08 01:20:58;;;;;;;24.40;22.10;;;;;;;-8.47;95.18;98178.44;106295;1283;25451;-75
2024/01/08 01:23:26;;;;;;;23.30;21.00;;;;;;;-8.50;94.73;98180.88;106316;1283;22691;-76
2024/01/08 01:25:54;;;;;;;22.70;20.40;;;;;;;-8.54;94.75;98176.81;106403;1273;24272;-76
2024/01/08 01:28:22;;;;;;;24.30;21.70;;;;;;;-8.56;95.00;98176.02;106379;1283;22571;-76
2024/01/08 01:30:50;;;;;;;22.90;20.60;;;;;;;-8.55;94.95;98182.27;106372;1273;25372;-76
2024/01/08 01:33:18;;;;;;;23.10;20.90;;;;;;;-8.53;95.10;98181.91;106207;1270;25357;-78
2024/01/08 01:35:46;;;;;;;25.10;22.70;;;;;;;-8.52;94.92;98185.77;106206;1277;25309;-75
2024/01/08 01:38:15;;;;;;;34.70;31.60;;;;;;;-8.52;95.16;98180.17;106377;1283;22556;-75
2024/01/08 01:40:46;;;;;;;25.50;23.10;;;;;;;-8.50;94.56;98179.27;106247;1283;24255;-74
2024/01/08 01:43:23;;;;;;;24.10;21.70;;;;;;;-8.54;94.78;98181.36;106249;1280;23303;-77
2024/01/08 01:45:54;;;;;;;25.00;22.60;;;;;;;-8.54;94.69;98186.39;106229;1268;25394;-76
2024/01/08 01:48:23;;;;;;;24.50;21.80;;;;;;;-8.55;94.83;98187.22;106246;1283;22655;-75
2024/01/08 01:50:51;;;;;;;23.60;21.20;;;;;;;-8.55;94.88;98188.48;106227;1273;24288;-75
2024/01/08 01:53:19;;;;;;;25.30;22.90;;;;;;;-8.53;94.94;98189.77;106225;1264;22559;-75
2024/01/08 01:55:48;;;;;;;24.90;22.50;;;;;;;-8.51;94.86;98188.56;106227;1283;25397;-76
2024/01/08 01:58:17;;;;;;;25.30;22.80;;;;;;;-8.50;94.88;98191.98;106161;1274;23267;-75
2024/01/08 02:00:46;;;;;;;24.70;22.20;;;;;;;-8.48;94.73;98195.39;106212;1280;22678;-76
2024/01/08 02:03:15;;;;;;;28.30;25.20;;;;;;;-8.55;94.22;98196.02;106387;1282;25111;-76
2024/01/08 02:05:44;;;;;;;28.90;26.10;;;;;;;-8.57;94.34;98196.78;106386;1283;22582;-77
2024/01/08 02:08:12;;;;;;;27.70;24.90;;;;;;;-8.57;94.26;98198.55;106266;1273;24378;-76
2024/01/08 02:10:42;;;;;;;25.80;23.20;;;;;;;-8.56;94.37;98199.69;106656;1260;22764;-76
2024/01/08 02:13:10;;;;;;;24.60;22.20;;;;;;;-8.59;94.08;98199.98;106654;1273;22568;-74
2024/01/08 02:15:39;;;;;;;25.60;23.00;;;;;;;-8.64;94.29;98210.23;106447;1282;22571;-74
2024/01/08 02:18:07;;;;;;;25.00;22.50;;;;;;;-8.62;94.35;98215.29;106214;1283;22542;-74
2024/01/08 02:20:36;;;;;;;28.10;25.50;;;;;;;-8.61;94.21;98218.67;106329;1280;22580;-74
2024/01/08 02:23:07;;;;;;;28.60;25.90;;;;;;;-8.62;93.87;98221.00;106319;1280;22616;-74
2024/01/08 02:25:36;;;;;;;24.10;21.60;;;;;;;-8.68;93.68;98218.94;106333;1267;24992;-75
2024/01/08 02:28:04;;;;;;;27.80;25.00;;;;;;;-8.77;93.05;98220.88;106348;1283;22544;-75
2024/01/08 02:30:32;;;;;;;28.10;25.30;;;;;;;-8.87;93.12;98219.37;106210;1281;22665;-73
2024/01/08 02:33:00;;;;;;;26.20;23.70;;;;;;;-8.92;93.37;98220.85;106208;1283;22540;-74
2024/01/08 02:35:29;;;;;;;26.90;24.20;;;;;;;-8.97;93.11;98222.80;106167;1280;24291;-74
2024/01/08 02:37:56;;;;;;;27.20;24.50;;;;;;;-8.99;93.44;98220.70;106178;1273;25131;-74
2024/01/08 02:40:26;;;;;;;27.20;24.60;;;;;;;-9.01;93.34;98224.88;106237;1280;22757;-74
2024/01/08 02:42:53;;;;;;;25.30;22.80;;;;;;;-8.99;93.63;98224.76;106310;1271;25322;-74
2024/01/08 02:45:21;;;;;;;31.80;28.90;;;;;;;-8.96;93.60;98226.34;106163;1276;25400;-74
2024/01/08 02:47:49;;;;;;;27.30;24.60;;;;;;;-8.95;93.51;98230.70;106217;1276;24305;-73
2024/01/08 02:50:17;;;;;;;28.30;25.50;;;;;;;-8.93;93.79;98234.30;106236;1274;25386;-73
2024/01/08 02:52:45;;;;;;;25.40;23.00;;;;;;;-8.88;93.64;98234.32;106225;1270;22556;-73
2024/01/08 02:55:13;;;;;;;27.50;24.80;;;;;;;-8.89;93.33;98232.20;106261;1270;22554;-74
2024/01/08 02:57:41;;;;;;;26.90;24.30;;;;;;;-8.90;93.42;98232.60;106248;1271;23751;-74
2024/01/08 03:00:10;;;;;;;25.60;23.10;;;;;;;-8.91;93.22;98234.44;106278;1276;22568;-74
2024/01/08 03:02:39;;;;;;;29.30;26.40;;;;;;;-8.94;92.93;98234.92;106246;1270;25542;-74
2024/01/08 03:05:08;;;;;;;30.90;27.60;;;;;;;-8.96;93.36;98241.30;106409;1277;22779;-74
2024/01/08 03:07:35;;;;;;;30.30;27.40;;;;;;;-8.91;93.80;98239.48;106441;1283;22543;-74
2024/01/08 03:10:04;;;;;;;28.30;25.60;;;;;;;-8.84;93.90;98242.91;106237;1282;22556;-73
2024/01/08 03:12:32;;;;;;;29.20;26.20;;;;;;;-8.81;93.89;98243.13;106171;1283;22553;-73
2024/01/08 03:15:02;;;;;;;25.50;22.90;;;;;;;-8.79;93.63;98250.56;106243;1274;24997;-73
2024/01/08 03:17:30;;;;;;;28.00;25.30;;;;;;;-8.80;93.37;98251.74;106218;1273;25539;-73
2024/01/08 03:19:58;;;;;;;27.20;24.50;;;;;;;-8.83;93.46;98252.76;106208;1283;24390;-73
2024/01/08 03:22:27;;;;;;;28.10;25.30;;;;;;;-8.86;93.10;98254.43;106173;1277;22545;-76
2024/01/08 03:24:55;;;;;;;30.40;27.40;;;;;;;-8.88;93.40;98254.36;106324;1282;22551;-77
2024/01/08 03:27:23;;;;;;;26.50;24.00;;;;;;;-8.93;92.80;98250.85;106354;1283;22652;-80
2024/01/08 03:30:18;;;;;;;25.70;22.90;;;;;;;-9.00;92.82;98258.77;106264;1273;24312;-77
2024/01/08 03:32:46;;;;;;;27.50;25.00;;;;;;;-9.09;92.66;98262.16;106308;1279;23750;-76
2024/01/08 03:35:18;;;;;;;27.70;24.90;;;;;;;-9.17;92.41;98265.45;106262;1283;22648;-77
2024/01/08 03:37:46;;;;;;;28.40;25.60;;;;;;;-9.22;92.14;98269.64;106268;1280;22609;-76
2024/01/08 03:40:15;;;;;;;28.50;25.70;;;;;;;-9.27;92.24;98273.00;106225;1272;23927;-77
2024/01/08 03:42:43;;;;;;;28.70;25.80;;;;;;;-9.30;92.26;98275.36;106272;1280;24237;-76
2024/01/08 03:45:11;;;;;;;32.80;29.70;;;;;;;-9.34;91.86;98278.11;106242;1283;22555;-75
2024/01/08 03:47:42;;;;;;;29.40;26.60;;;;;;;-9.37;92.29;98276.42;106275;1270;24471;-77
2024/01/08 03:50:10;;;;;;;29.10;26.40;;;;;;;-9.37;92.25;98277.02;106267;1283;26708;-76
2024/01/08 03:52:38;;;;;;;29.40;26.50;;;;;;;-9.38;92.34;98276.33;106283;1283;22533;-75
2024/01/08 03:55:07;;;;;;;28.90;26.10;;;;;;;-9.33;92.18;98281.29;106287;1277;25353;-74
2024/01/08 03:57:36;;;;;;;29.80;27.00;;;;;;;-9.36;91.97;98283.44;106234;1281;22649;-76
2024/01/08 04:00:05;;;;;;;31.40;28.50;;;;;;;-9.37;92.22;98286.02;106236;1271;23932;-76
2024/01/08 04:02:40;;;;;;;32.40;29.40;;;;;;;-9.36;92.04;98282.06;106198;1270;25426;-76
2024/01/08 04:05:11;;;;;;;29.00;26.20;;;;;;;-9.36;92.24;98287.84;106317;1284;24077;-75
2024/01/08 04:07:40;;;;;;;30.50;27.60;;;;;;;-9.40;91.96;98288.71;106354;1284;22547;-76
2024/01/08 04:10:08;;;;;;;29.10;26.20;;;;;;;-9.36;92.03;98290.13;106702;1276;22638;-76
2024/01/08 04:12:36;;;;;;;28.70;25.80;;;;;;;-9.37;91.97;98298.22;106366;1284;24354;-76
2024/01/08 04:15:05;;;;;;;28.60;25.70;;;;;;;-9.36;92.36;98293.39;106339;1269;25317;-77
2024/01/08 04:17:33;;;;;;;30.50;27.50;;;;;;;-9.32;92.30;98299.81;106291;1284;24362;-77
2024/01/08 04:20:01;;;;;;;30.90;27.80;;;;;;;-9.31;91.68;98300.02;106213;1276;25572;-76
2024/01/08 04:22:29;;;;;;;31.90;28.70;;;;;;;-9.34;91.70;98302.61;106180;1263;22822;-76
2024/01/08 04:24:57;;;;;;;28.90;25.90;;;;;;;-9.44;91.24;98305.77;106191;1284;24417;-76
2024/01/08 04:27:25;;;;;;;30.30;27.20;;;;;;;-9.52;90.87;98312.84;106214;1277;22560;-77
2024/01/08 04:29:53;;;;;;;32.90;29.70;;;;;;;-9.65;90.94;98316.62;106204;1271;22653;-77
2024/01/08 04:32:20;;;;;;;29.60;26.70;;;;;;;-9.71;90.76;98323.48;106138;1284;24318;-76
2024/01/08 04:34:49;;;;;;;30.40;27.30;;;;;;;-9.73;91.18;98328.73;106212;1270;22560;-76
2024/01/08 04:37:16;;;;;;;26.90;24.30;;;;;;;-9.73;91.01;98333.79;106204;1273;25255;-76
2024/01/08 04:39:44;;;;;;;29.00;26.10;;;;;;;-9.74;91.00;98332.91;106239;1281;22661;-76
2024/01/08 04:42:12;;;;;;;30.70;27.60;;;;;;;-9.71;91.38;98339.69;106210;1270;25966;-75
2024/01/08 04:44:40;;;;;;;34.80;31.50;;;;;;;-9.68;91.58;98339.90;106193;1270;24616;-75
2024/01/08 04:47:08;;;;;;;28.20;25.50;;;;;;;-9.62;91.67;98343.21;106236;1277;24404;-77
2024/01/08 04:49:36;;;;;;;29.30;26.30;;;;;;;-9.61;91.21;98342.42;106278;1277;24293;-76
2024/01/08 04:52:04;;;;;;;28.90;26.00;;;;;;;-9.59;91.50;98341.67;106282;1284;24401;-75
2024/01/08 04:54:32;;;;;;;28.80;25.80;;;;;;;-9.57;91.29;98343.60;106145;1270;24400;-75
2024/01/08 04:57:00;;;;;;;28.40;25.50;;;;;;;-9.57;91.15;98347.27;106280;1263;23090;-75
2024/01/08 04:59:28;;;;;;;33.20;30.00;;;;;;;-9.64;90.57;98348.16;106242;1260;24475;-75
2024/01/08 05:01:56;;;;;;;27.30;24.70;;;;;;;-9.70;90.52;98353.16;106249;1283;22780;-75
2024/01/08 05:04:24;;;;;;;30.30;27.20;;;;;;;-9.77;90.14;98357.54;106304;1282;22527;-76
2024/01/08 05:06:52;;;;;;;27.40;24.60;;;;;;;-9.83;90.44;98365.02;106340;1270;22543;-76
2024/01/08 05:09:20;;;;;;;29.40;26.60;;;;;;;-9.88;90.40;98371.78;106389;1283;23971;-76
2024/01/08 05:11:47;;;;;;;27.40;24.80;;;;;;;-9.88;90.45;98379.80;106333;1282;24313;-77
2024/01/08 05:14:15;;;;;;;26.20;23.70;;;;;;;-9.91;90.03;98389.40;106284;1280;25385;-76
2024/01/08 05:16:43;;;;;;;29.20;26.40;;;;;;;-9.99;90.05;98389.30;106164;1283;25514;-76
2024/01/08 05:19:11;;;;;;;29.70;26.50;;;;;;;-10.05;90.01;98392.98;106370;1283;24276;-76
2024/01/08 05:21:39;;;;;;;29.80;26.90;;;;;;;-10.08;89.75;98397.66;106305;1270;22549;-76
2024/01/08 05:24:08;;;;;;;27.20;24.40;;;;;;;-10.08;89.82;98397.17;106255;1264;25265;-75
2024/01/08 05:26:35;;;;;;;27.60;24.80;;;;;;;-10.10;90.05;98397.75;106274;1273;22549;-75
2024/01/08 05:29:04;;;;;;;29.70;26.70;;;;;;;-10.11;90.25;98397.05;106277;1283;25437;-75
2024/01/08 05:31:32;;;;;;;29.70;26.70;;;;;;;-10.09;90.03;98401.02;106319;1283;22567;-76
2024/01/08 05:34:00;;;;;;;28.90;26.00;;;;;;;-10.07;90.19;98401.77;106269;1280;22550;-76
2024/01/08 05:36:28;;;;;;;29.10;26.10;;;;;;;-10.09;90.03;98401.81;106320;1270;23159;-76
2024/01/08 05:38:59;;;;;;;29.00;26.20;;;;;;;-10.13;89.96;98409.64;106259;1283;22586;-77
2024/01/08 05:41:27;;;;;;;29.30;26.40;;;;;;;-10.14;89.79;98412.05;106256;1270;22597;-76
2024/01/08 05:43:55;;;;;;;29.10;26.30;;;;;;;-10.12;90.21;98413.70;106237;1280;22623;-76
2024/01/08 05:46:23;;;;;;;28.10;25.40;;;;;;;-10.11;89.73;98412.23;106277;1264;22565;-76
2024/01/08 05:48:51;;;;;;;30.80;27.80;;;;;;;-10.16;89.69;98412.23;106260;1280;23947;-76
2024/01/08 05:51:19;;;;;;;30.60;27.40;;;;;;;-10.17;89.89;98411.91;106247;1268;25453;-76
2024/01/08 05:53:47;;;;;;;29.50;26.40;;;;;;;-10.16;90.08;98419.86;106274;1273;22578;-76
2024/01/08 05:56:15;;;;;;;28.40;25.70;;;;;;;-10.14;89.84;98418.77;106286;1269;24340;-76
2024/01/08 05:58:43;;;;;;;28.80;25.80;;;;;;;-10.18;89.71;98423.66;106257;1269;23907;-76
2024/01/08 06:01:11;;;;;;;34.50;28.20;;;;;;;-10.24;89.52;98428.79;106291;1283;23905;-75
2024/01/08 06:03:39;;;;;;;29.10;26.40;;;;;;;-10.31;90.06;98430.42;106365;1276;22550;-75
2024/01/08 06:06:07;;;;;;;28.90;26.10;;;;;;;-10.30;89.88;98429.10;106281;1273;24398;-75
2024/01/08 06:08:37;;;;;;;29.80;27.00;;;;;;;-10.30;89.78;98436.42;106294;1268;23328;-75
2024/01/08 06:11:05;;;;;;;27.50;24.80;;;;;;;-10.33;89.72;98445.52;106251;1270;22537;-75
2024/01/08 06:13:35;;;;;;;28.60;25.70;;;;;;;-10.37;89.69;98444.57;106291;1283;24274;-76
2024/01/08 06:16:03;;;;;;;29.10;26.40;;;;;;;-10.36;89.99;98443.94;106372;1283;22642;-74
2024/01/08 06:18:32;;;;;;;29.00;26.20;;;;;;;-10.29;90.18;98450.59;106288;1273;22683;-74
2024/01/08 06:21:01;;;;;;;29.60;26.70;;;;;;;-10.23;90.01;98454.77;106465;1273;24378;-74
2024/01/08 06:23:29;;;;;;;36.10;32.70;;;;;;;-10.25;89.83;98461.77;106529;1281;22562;-74
2024/01/08 06:26:03;;;;;;;28.80;25.90;;;;;;;-10.24;89.95;98465.00;106626;1277;22576;-75
2024/01/08 06:28:32;;;;;;;31.50;28.50;;;;;;;-10.22;89.85;98468.98;106431;1283;25606;-75
2024/01/08 06:31:03;;;;;;;30.30;27.50;;;;;;;-10.25;89.92;98474.79;106419;1283;22559;-75
2024/01/08 06:33:57;;;;;;;27.40;24.80;;;;;;;-10.28;89.81;98473.33;106399;1283;26546;-75
2024/01/08 06:36:25;;;;;;;33.20;30.20;;;;;;;-10.28;90.28;98475.52;106321;1275;23911;-74
2024/01/08 06:38:53;;;;;;;30.20;27.20;;;;;;;-10.23;90.00;98478.58;106361;1270;25634;-74
2024/01/08 06:41:21;;;;;;;31.70;28.70;;;;;;;-10.23;90.16;98481.52;106247;1273;22768;-74
2024/01/08 06:43:49;;;;;;;30.80;27.70;;;;;;;-10.23;89.91;98482.73;106268;1283;26522;-74
2024/01/08 06:46:18;;;;;;;32.30;29.10;;;;;;;-10.22;90.20;98487.48;106264;1277;26210;-74
2024/01/08 06:48:47;;;;;;;29.40;26.50;;;;;;;-10.19;90.06;98491.45;106291;1283;22547;-74
2024/01/08 06:51:15;;;;;;;30.20;27.20;;;;;;;-10.19;90.02;98495.91;106332;1277;22559;-74
2024/01/08 06:53:43;;;;;;;28.70;26.00;;;;;;;-10.21;89.85;98499.44;106198;1269;24252;-74
2024/01/08 06:56:11;;;;;;;28.20;25.20;;;;;;;-10.26;89.81;98504.92;106284;1283;22556;-76
2024/01/08 06:58:39;;;;;;;29.50;26.50;;;;;;;-10.27;89.72;98504.23;106262;1270;25372;-74
2024/01/08 07:01:07;;;;;;;31.50;28.50;;;;;;;-10.30;89.47;98508.70;106224;1280;24377;-74
2024/01/08 07:03:35;;;;;;;29.30;26.40;;;;;;;-10.34;89.60;98513.77;106294;1269;25423;-74
2024/01/08 07:06:03;;;;;;;30.10;27.20;;;;;;;-10.35;89.55;98516.76;106260;1272;22659;-74
2024/01/08 07:08:31;;;;;;;31.50;28.50;;;;;;;-10.31;89.81;98515.52;106236;1271;24074;-74
2024/01/08 07:10:59;;;;;;;30.00;27.10;;;;;;;-10.21;90.15;98513.72;106195;1273;23305;-75
2024/01/08 07:13:27;;;;;;;28.10;25.40;;;;;;;-10.12;90.26;98519.16;106289;1276;24457;-76
2024/01/08 07:15:57;;;;;;;31.40;28.30;;;;;;;-10.05;89.98;98522.52;106226;1273;22546;-74
2024/01/08 07:18:25;;;;;;;30.00;27.00;;;;;;;-9.99;90.34;98529.23;106223;1269;22592;-74
2024/01/08 07:20:54;;;;;;;30.00;27.20;;;;;;;-9.93;90.03;98532.27;106295;1283;25397;-74
2024/01/08 07:23:23;;;;;;;30.80;27.80;;;;;;;-9.91;90.03;98539.15;106319;1282;22674;-76
2024/01/08 07:25:52;;;;;;;29.10;26.30;;;;;;;-9.90;89.93;98538.51;106354;1270;24078;-75
2024/01/08 07:28:20;;;;;;;29.90;27.00;;;;;;;-9.86;89.91;98545.80;106222;1260;22544;-73
2024/01/08 07:30:48;;;;;;;28.70;25.90;;;;;;;-9.79;90.06;98549.33;106387;1269;26828;-76
2024/01/08 07:33:17;;;;;;;32.60;29.40;;;;;;;-9.73;90.17;98557.42;106248;1279;23924;-74
2024/01/08 07:35:45;;;;;;;28.90;26.00;;;;;;;-9.66;90.15;98561.48;106428;1282;25261;-76
2024/01/08 07:38:13;;;;;;;36.20;32.50;;;;;;;-9.63;89.49;98558.33;106272;1280;22690;-74
2024/01/08 07:40:41;;;;;;;35.90;32.40;;;;;;;-9.62;89.99;98560.75;106279;1283;25379;-74
2024/01/08 07:43:09;;;;;;;40.30;36.70;;;;;;;-9.53;90.26;98562.55;106247;1276;23903;-74
2024/01/08 07:45:37;;;;;;;38.10;34.40;;;;;;;-9.45;90.18;98568.86;106206;1273;22562;-74
2024/01/08 07:48:05;;;;;;;31.80;28.00;;;;;;;-9.41;90.34;98567.69;106241;1283;22557;-75
2024/01/08 07:50:33;;;;;;;32.90;29.70;;;;;;;-9.31;90.55;98570.55;106220;1277;22550;-75
2024/01/08 07:53:01;;;;;;;32.70;29.50;;;;;;;-9.26;90.47;98573.30;106243;1270;25421;-75
2024/01/08 07:55:29;;;;;;;31.40;28.40;;;;;;;-9.19;90.72;98581.52;106340;1260;22762;-74
2024/01/08 07:57:58;;;;;;;30.10;27.20;;;;;;;-9.14;90.27;98588.67;106256;1270;23161;-76
2024/01/08 08:00:26;;;;;;;30.60;27.70;;;;;;;-9.13;90.30;98590.17;106321;1274;22654;-74
2024/01/08 08:02:54;;;;;;;28.80;26.00;;;;;;;-9.08;90.44;98596.97;106381;1283;23636;-75
2024/01/08 08:05:22;;;;;;;29.60;26.60;;;;;;;-9.11;89.67;98598.98;106337;1268;25517;-75
2024/01/08 08:07:56;;;;;;;29.10;26.20;;;;;;;-9.14;89.65;98602.56;106225;1283;23965;-74
2024/01/08 08:10:23;;;;;;;31.50;28.50;;;;;;;-9.10;89.95;98605.19;106251;1282;22538;-74
2024/01/08 08:12:52;;;;;;;29.80;26.90;;;;;;;-9.02;90.15;98605.16;106263;1282;25309;-73
2024/01/08 08:15:20;;;;;;;29.90;27.10;;;;;;;-8.97;89.70;98609.16;106268;1270;22607;-74
2024/01/08 08:17:50;;;;;;;28.80;26.00;;;;;;;-8.97;88.62;98612.50;106326;1269;25517;-74
2024/01/08 08:20:20;;;;;;;33.20;29.80;;;;;;;-9.08;88.29;98620.05;106297;1270;22651;-75
2024/01/08 08:22:48;;;;;;;30.00;27.00;;;;;;;-9.05;89.22;98621.89;106320;1275;24234;-75
2024/01/08 08:25:19;;;;;;;29.00;26.10;;;;;;;-8.96;88.93;98621.92;106300;1283;22567;-75
2024/01/08 08:27:47;;;;;;;33.70;30.30;;;;;;;-8.89;89.21;98624.55;106269;1273;23910;-76
2024/01/08 08:30:19;;;;;;;28.70;25.60;;;;;;;-8.72;89.56;98626.27;106440;1280;25359;-75
2024/01/08 08:32:48;;;;;;;28.50;25.70;;;;;;;-8.66;88.45;98628.20;106401;1268;22616;-76
2024/01/08 08:35:16;;;;;;;29.60;26.70;;;;;;;-8.66;87.57;98630.58;106387;1280;22637;-76
2024/01/08 08:37:45;;;;;;;29.90;26.90;;;;;;;-8.67;88.37;98637.79;106344;1282;25268;-76
2024/01/08 08:40:21;;;;;;;27.40;24.50;;;;;;;-8.48;89.15;98638.96;106235;1283;24196;-75
2024/01/08 08:42:50;;;;;;;29.50;26.60;;;;;;;-8.38;88.09;98638.35;106220;1275;25260;-75
2024/01/08 08:45:18;;;;;;;30.20;27.40;;;;;;;-8.38;88.16;98640.70;106305;1272;22579;-75
2024/01/08 08:47:46;;;;;;;25.70;23.00;;;;;;;-8.27;88.71;98651.92;106298;1270;22694;-75
2024/01/08 08:50:15;;;;;;;27.00;24.40;;;;;;;-8.14;89.04;98652.37;106296;1273;22638;-75
2024/01/08 08:52:46;;;;;;;25.60;23.10;;;;;;;-8.03;89.21;98653.08;106315;1282;22565;-75
2024/01/08 08:55:15;;;;;;;26.10;23.60;;;;;;;-7.92;88.81;98650.21;106252;1277;26482;-75
2024/01/08 08:57:43;;;;;;;25.40;22.80;;;;;;;-7.85;88.46;98652.41;106212;1277;25440;-75
2024/01/08 09:00:11;;;;;;;26.60;24.00;;;;;;;-7.85;87.74;98658.86;106350;1283;24357;-75
2024/01/08 09:02:44;;;;;;;31.20;28.20;;;;;;;-7.86;87.29;98658.63;106273;1270;25353;-75
2024/01/08 09:05:13;;;;;;;31.20;28.20;;;;;;;-7.85;87.63;98663.08;106268;1269;25385;-75
2024/01/08 09:07:49;;;;;;;26.30;23.80;;;;;;;-7.79;87.59;98661.12;106260;1283;22554;-75
2024/01/08 09:10:17;;;;;;;27.90;25.10;;;;;;;-7.72;87.85;98665.66;106288;1270;24113;-75
2024/01/08 09:12:45;;;;;;;29.50;26.70;;;;;;;-7.62;88.19;98668.84;106191;1270;24069;-75
2024/01/08 09:15:14;;;;;;;28.20;25.30;;;;;;;-7.55;87.21;98672.61;106263;1270;22547;-75
2024/01/08 09:17:42;;;;;;;30.30;27.10;;;;;;;-7.54;86.61;98674.02;106265;1270;22529;-74
2024/01/08 09:20:11;;;;;;;31.30;28.10;;;;;;;-7.50;87.34;98676.78;106257;1270;23905;-75
2024/01/08 09:22:39;;;;;;;27.90;25.10;;;;;;;-7.35;87.88;98679.17;106258;1283;22615;-75
2024/01/08 09:25:08;;;;;;;27.70;24.80;;;;;;;-7.30;86.34;98682.30;106254;1270;24302;-75
2024/01/08 09:27:38;;;;;;;28.60;25.80;;;;;;;-7.31;86.33;98685.18;106226;1282;22568;-75
2024/01/08 09:30:06;;;;;;;25.80;23.30;;;;;;;-7.32;86.19;98690.33;106265;1273;22783;-75
2024/01/08 09:32:34;;;;;;;28.40;25.70;;;;;;;-7.29;86.38;98683.77;106122;1279;26547;-75
2024/01/08 09:35:03;;;;;;;25.80;23.30;;;;;;;-7.24;86.30;98690.38;106339;1270;22558;-75
2024/01/08 09:37:31;;;;;;;28.10;25.40;;;;;;;-7.22;86.09;98691.92;106271;1268;22547;-75
2024/01/08 09:39:59;;;;;;;26.80;24.00;;;;;;;-7.18;86.17;98687.83;106243;1276;25348;-74
2024/01/08 09:42:30;;;;;;;26.30;23.60;;;;;;;-7.13;84.92;98690.89;106212;1270;22546;-74
2024/01/08 09:45:02;;;;;;;25.30;22.70;;;;;;;-7.20;84.97;98685.96;106393;1283;22702;-74
2024/01/08 09:47:31;;;;;;;24.30;21.90;;;;;;;-7.22;84.73;98686.17;106399;1277;25429;-75
2024/01/08 09:50:01;;;;;;;26.40;23.90;;;;;;;-7.20;84.62;98683.54;106287;1283;25400;-74
2024/01/08 09:52:32;;;;;;;25.30;22.70;;;;;;;-7.16;84.91;98681.89;105984;1270;514637;-74
2024/01/08 09:55:10;;;;;;;24.60;22.30;;;;;;;-7.11;85.43;98687.76;106276;1277;22605;-75
2024/01/08 09:57:38;;;;;;;23.50;21.20;;;;;;;-7.03;84.71;98686.16;106299;1277;22536;-75
2024/01/08 10:00:07;;;;;;;24.40;22.00;;;;;;;-7.00;84.84;98687.77;106260;1270;22536;-76
2024/01/08 10:02:41;;;;;;;28.90;26.30;;;;;;;-6.95;85.07;98696.49;106266;1263;24307;-73
2024/01/08 10:05:10;;;;;;;25.20;22.70;;;;;;;-6.87;84.57;98694.39;106214;1283;22543;-73
2024/01/08 10:07:39;;;;;;;25.50;23.00;;;;;;;-6.87;83.58;98693.67;106303;1283;22554;-74
2024/01/08 10:10:07;;;;;;;25.10;22.40;;;;;;;-6.91;84.45;98687.45;106304;1273;22482;-75
2024/01/08 10:12:35;;;;;;;26.80;24.00;;;;;;;-6.84;84.62;98693.80;106330;1280;25411;-75
2024/01/08 10:15:04;;;;;;;24.10;21.80;;;;;;;-6.74;85.08;98690.84;106383;1268;23569;-75
2024/01/08 10:17:32;;;;;;;29.30;26.40;;;;;;;-6.69;84.57;98690.21;106371;1282;22684;-75
2024/01/08 10:20:06;;;;;;;38.00;33.80;;;;;;;-6.71;84.03;98684.48;106376;1268;22581;-75
2024/01/08 10:22:34;;;;;;;28.70;26.00;;;;;;;-6.83;82.71;98686.27;106435;1270;22791;-75
2024/01/08 10:25:02;;;;;;;34.70;31.10;;;;;;;-7.01;82.88;98687.38;106374;1265;25324;-75
2024/01/08 10:27:30;;;;;;;29.70;26.60;;;;;;;-7.04;83.79;98688.27;106353;1283;25455;-75
2024/01/08 10:29:59;;;;;;;28.60;25.90;;;;;;;-7.00;84.38;98684.45;106235;1280;22626;-74
2024/01/08 10:32:27;;;;;;;27.70;25.00;;;;;;;-7.03;82.67;98685.80;106415;1282;22662;-75
2024/01/08 10:34:56;;;;;;;27.00;24.20;;;;;;;-7.11;82.77;98690.38;106387;1272;24357;-75
2024/01/08 10:37:26;;;;;;;26.80;24.20;;;;;;;-7.14;82.19;98691.16;106419;1262;24415;-75
2024/01/08 10:39:55;;;;;;;26.30;23.80;;;;;;;-7.22;80.95;98692.13;106478;1277;22593;-75
2024/01/08 10:42:23;;;;;;;26.00;23.40;;;;;;;-7.24;82.38;98695.30;106477;1283;22575;-75
2024/01/08 10:44:52;;;;;;;25.50;22.80;;;;;;;-7.15;82.40;98696.63;106476;1271;22513;-75
2024/01/08 10:47:23;;;;;;;25.90;23.40;;;;;;;-7.15;81.22;98701.77;106443;1276;24344;-75
2024/01/08 10:50:02;;;;;;;24.80;22.20;;;;;;;-7.13;80.93;98700.36;106445;1280;24004;-76
2024/01/08 10:52:56;;;;;;;25.30;22.80;;;;;;;-7.20;79.93;98705.12;106530;1282;22571;-75
2024/01/08 10:55:24;;;;;;;27.40;24.70;;;;;;;-7.18;80.42;98705.51;106482;1273;24190;-75
2024/01/08 10:58:02;;;;;;;28.70;25.80;;;;;;;-7.15;81.38;98712.44;106328;1271;25468;-75
2024/01/08 11:00:32;;;;;;;27.70;24.70;;;;;;;-6.99;82.23;98711.39;106300;1276;24261;-74
2024/01/08 11:03:02;;;;;;;26.60;23.90;;;;;;;-6.84;81.33;98709.94;106246;1279;22543;-74
2024/01/08 11:05:33;;;;;;;27.30;24.60;;;;;;;-6.79;81.36;98708.88;106274;1283;24309;-75
2024/01/08 11:08:03;;;;;;;25.20;22.70;;;;;;;-6.66;82.32;98705.72;106328;1263;25442;-75
2024/01/08 11:10:32;;;;;;;25.40;22.80;;;;;;;-6.54;81.45;98711.23;106310;1276;24244;-74
2024/01/08 11:13:00;;;;;;;24.60;22.20;;;;;;;-6.53;80.25;98713.77;106300;1280;25387;-75
2024/01/08 11:15:28;;;;;;;25.50;22.80;;;;;;;-6.65;79.48;98713.88;106287;1280;22719;-76